Terminal Aerodrome Forecast
Issued by NWS

Home | Current Version | Previous Version | Text Only | Print | Product List | Glossary On
Versions: 1 2 3 4 5 6 7 8 9 10 11 12 13 14
154
FTPA31 PHFO 062325
TAFHTO
TAF
PHTO 062325Z 0700/0724 12011KT P6SM SCT025 BKN045
      TEMPO 0700/0702 12012G20KT
     FM070500 23005KT P6SM VCSH SCT025 BKN035
     FM072000 04010KT P6SM VCSH SCT025 BKN035=

USA.gov is the U.S. government's official web portal to all federal, state and local government web resources and services.